< < Back
Terminal Aerodrome Forecast


Current Version              Previous Versions:   1  2  3  4  5  6  7  8  9  

Terminal Aerodrome Forecast

459
FTUS44 KMRX 302108 AAA
TAFCHA
TAF AMD
KCHA 302108Z 3021/0118 35006KT P6SM SCT050 BKN080
      TEMPO 3021/3024 6SM -TSRA BR SCT030 BKN050CB
     FM010000 VRB04KT P6SM VCTS SCT050CB BKN150
      TEMPO 0101/0104 5SM -TSRA BR BKN040CB
     FM010400 13003KT P6SM VCSH BKN030
     FM011300 17006KT P6SM VCTS BKN040CB=

Latest METAR

975
SAUS80 KWBC 302200 CCA
MTRCHA
METAR KCHA 302153Z 06006KT 10SM SCT048 SCT060 26/19 A2988 RMK AO2
TSB2056E36 SLP110 TS MOV NE T02560189


USA.gov is the U.S. government's official web portal to all federal, state and local government web resources and services.